sensor_id;sensor_type;location;lat;lon;timestamp;pressure;altitude;pressure_sealevel;temperature;humidity
52625;BME280;38519;52.540;13.410;2023-11-21T00:01:05;44837.72;;;-146.17;100.00
52625;BME280;38519;52.540;13.410;2023-11-21T00:03:33;44827.81;;;-146.17;100.00
52625;BME280;38519;52.540;13.410;2023-11-21T00:05:59;44823.88;;;-146.17;100.00
52625;BME280;38519;52.540;13.410;2023-11-21T00:08:25;44815.97;;;-146.17;100.00
52625;BME280;38519;52.540;13.410;2023-11-21T00:10:50;44825.84;;;-146.17;100.00
52625;BME280;38519;52.540;13.410;2023-11-21T00:13:16;44819.91;;;-146.17;100.00
52625;BME280;38519;52.540;13.410;2023-11-21T00:15:41;44851.53;;;-146.17;100.00
52625;BME280;38519;52.540;13.410;2023-11-21T00:18:07;44827.81;;;-146.17;100.00
52625;BME280;38519;52.540;13.410;2023-11-21T00:20:32;44815.97;;;-146.17;100.00
52625;BME280;38519;52.540;13.410;2023-11-21T00:22:57;44815.97;;;-146.17;100.00
52625;BME280;38519;52.540;13.410;2023-11-21T00:25:22;44810.03;;;-146.17;100.00
52625;BME280;38519;52.540;13.410;2023-11-21T00:27:48;44825.84;;;-146.17;100.00
52625;BME280;38519;52.540;13.410;2023-11-21T00:30:13;44829.81;;;-146.17;100.00
52625;BME280;38519;52.540;13.410;2023-11-21T00:32:38;44829.81;;;-146.17;100.00
52625;BME280;38519;52.540;13.410;2023-11-21T00:35:04;44827.81;;;-146.17;100.00
52625;BME280;38519;52.540;13.410;2023-11-21T00:37:30;44825.84;;;-146.17;100.00
52625;BME280;38519;52.540;13.410;2023-11-21T00:39:57;44815.97;;;-146.17;100.00
52625;BME280;38519;52.540;13.410;2023-11-21T00:42:22;44851.53;;;-146.17;100.00
52625;BME280;38519;52.540;13.410;2023-11-21T00:44:47;44839.69;;;-146.17;100.00
52625;BME280;38519;52.540;13.410;2023-11-21T00:47:13;44831.78;;;-146.17;100.00
52625;BME280;38519;52.540;13.410;2023-11-21T00:49:38;44827.81;;;-146.17;100.00
52625;BME280;38519;52.540;13.410;2023-11-21T00:52:04;44853.50;;;-146.17;100.00
52625;BME280;38519;52.540;13.410;2023-11-21T00:54:29;44859.44;;;-146.17;100.00
52625;BME280;38519;52.540;13.410;2023-11-21T00:56:55;44863.41;;;-146.17;100.00
52625;BME280;38519;52.540;13.410;2023-11-21T00:59:21;44853.50;;;-146.17;100.00
52625;BME280;38519;52.540;13.410;2023-11-21T01:01:48;44823.88;;;-146.17;100.00
52625;BME280;38519;52.540;13.410;2023-11-21T01:04:13;44859.44;;;-146.17;100.00
52625;BME280;38519;52.540;13.410;2023-11-21T01:06:38;44857.47;;;-146.17;100.00
52625;BME280;38519;52.540;13.410;2023-11-21T01:09:04;44865.38;;;-146.17;100.00
52625;BME280;38519;52.540;13.410;2023-11-21T01:11:33;44845.59;;;-146.17;100.00
52625;BME280;38519;52.540;13.410;2023-11-21T01:14:01;44815.97;;;-146.17;100.00
52625;BME280;38519;52.540;13.410;2023-11-21T01:16:26;44841.66;;;-146.17;100.00
52625;BME280;38519;52.540;13.410;2023-11-21T01:18:52;44857.47;;;-146.17;100.00
52625;BME280;38519;52.540;13.410;2023-11-21T01:21:18;44845.59;;;-146.17;100.00
52625;BME280;38519;52.540;13.410;2023-11-21T01:23:43;44825.84;;;-146.17;100.00
52625;BME280;38519;52.540;13.410;2023-11-21T01:26:08;44845.59;;;-146.17;100.00
52625;BME280;38519;52.540;13.410;2023-11-21T01:28:35;44873.28;;;-146.17;100.00
52625;BME280;38519;52.540;13.410;2023-11-21T01:31:00;44859.44;;;-146.17;100.00
52625;BME280;38519;52.540;13.410;2023-11-21T01:33:25;44881.19;;;-146.17;100.00
52625;BME280;38519;52.540;13.410;2023-11-21T01:35:50;44904.88;;;-146.17;100.00
52625;BME280;38519;52.540;13.410;2023-11-21T01:38:18;44897.00;;;-146.17;100.00
52625;BME280;38519;52.540;13.410;2023-11-21T01:40:43;44902.91;;;-146.17;100.00
52625;BME280;38519;52.540;13.410;2023-11-21T01:43:08;44904.88;;;-146.17;100.00
52625;BME280;38519;52.540;13.410;2023-11-21T01:45:34;44912.78;;;-146.17;100.00
52625;BME280;38519;52.540;13.410;2023-11-21T01:47:59;44902.91;;;-146.17;100.00
52625;BME280;38519;52.540;13.410;2023-11-21T01:50:25;44932.56;;;-146.17;100.00
52625;BME280;38519;52.540;13.410;2023-11-21T01:52:51;44926.63;;;-146.17;100.00
52625;BME280;38519;52.540;13.410;2023-11-21T01:55:17;44944.41;;;-146.17;100.00
52625;BME280;38519;52.540;13.410;2023-11-21T01:57:45;44938.47;;;-146.17;100.00
52625;BME280;38519;52.540;13.410;2023-11-21T02:00:11;44968.13;;;-146.17;100.00
52625;BME280;38519;52.540;13.410;2023-11-21T02:02:48;44960.22;;;-146.17;100.00
52625;BME280;38519;52.540;13.410;2023-11-21T02:05:16;44948.38;;;-146.17;100.00
52625;BME280;38519;52.540;13.410;2023-11-21T02:07:46;44926.63;;;-146.17;100.00
52625;BME280;38519;52.540;13.410;2023-11-21T02:10:13;44928.59;;;-146.17;100.00
52625;BME280;38519;52.540;13.410;2023-11-21T02:12:43;44924.66;;;-146.17;100.00
52625;BME280;38519;52.540;13.410;2023-11-21T02:15:12;44940.47;;;-146.17;100.00
52625;BME280;38519;52.540;13.410;2023-11-21T02:17:45;44946.38;;;-146.17;100.00
52625;BME280;38519;52.540;13.410;2023-11-21T02:20:12;44940.47;;;-146.17;100.00
52625;BME280;38519;52.540;13.410;2023-11-21T02:22:41;44946.38;;;-146.17;100.00
52625;BME280;38519;52.540;13.410;2023-11-21T02:25:07;44997.75;;;-146.17;100.00
52625;BME280;38519;52.540;13.410;2023-11-21T02:27:32;44983.94;;;-146.17;100.00
52625;BME280;38519;52.540;13.410;2023-11-21T02:29:58;44960.22;;;-146.17;100.00
52625;BME280;38519;52.540;13.410;2023-11-21T02:32:24;44956.28;;;-146.17;100.00
52625;BME280;38519;52.540;13.410;2023-11-21T02:34:51;44930.56;;;-146.17;100.00
52625;BME280;38519;52.540;13.410;2023-11-21T02:37:18;44952.31;;;-146.17;100.00
52625;BME280;38519;52.540;13.410;2023-11-21T02:39:43;44918.72;;;-146.17;100.00
52625;BME280;38519;52.540;13.410;2023-11-21T02:42:09;44936.50;;;-146.17;100.00
52625;BME280;38519;52.540;13.410;2023-11-21T02:44:34;44916.75;;;-146.17;100.00
52625;BME280;38519;52.540;13.410;2023-11-21T02:47:00;44964.16;;;-146.17;100.00
52625;BME280;38519;52.540;13.410;2023-11-21T02:49:25;44930.56;;;-146.17;100.00
52625;BME280;38519;52.540;13.410;2023-11-21T02:51:53;44932.56;;;-146.17;100.00
52625;BME280;38519;52.540;13.410;2023-11-21T02:54:19;44956.28;;;-146.17;100.00
52625;BME280;38519;52.540;13.410;2023-11-21T02:56:46;44964.16;;;-146.17;100.00
52625;BME280;38519;52.540;13.410;2023-11-21T02:59:12;44946.38;;;-146.17;100.00
52625;BME280;38519;52.540;13.410;2023-11-21T03:01:37;44938.47;;;-146.17;100.00
52625;BME280;38519;52.540;13.410;2023-11-21T03:04:02;44970.09;;;-146.17;100.00
52625;BME280;38519;52.540;13.410;2023-11-21T03:06:28;44983.94;;;-146.17;100.00
52625;BME280;38519;52.540;13.410;2023-11-21T03:08:53;44987.88;;;-146.17;100.00
52625;BME280;38519;52.540;13.410;2023-11-21T03:11:18;44985.91;;;-146.17;100.00
52625;BME280;38519;52.540;13.410;2023-11-21T03:13:43;45011.59;;;-146.17;100.00
52625;BME280;38519;52.540;13.410;2023-11-21T03:16:09;44981.97;;;-146.17;100.00
52625;BME280;38519;52.540;13.410;2023-11-21T03:18:36;45027.41;;;-146.17;100.00
52625;BME280;38519;52.540;13.410;2023-11-21T03:21:01;44978.00;;;-146.17;100.00
52625;BME280;38519;52.540;13.410;2023-11-21T03:23:26;45007.66;;;-146.17;100.00
52625;BME280;38519;52.540;13.410;2023-11-21T03:25:51;45009.63;;;-146.17;100.00
52625;BME280;38519;52.540;13.410;2023-11-21T03:28:18;45041.25;;;-146.17;100.00
52625;BME280;38519;52.540;13.410;2023-11-21T03:30:43;45118.31;;;-146.17;100.00
52625;BME280;38519;52.540;13.410;2023-11-21T03:33:08;45120.28;;;-146.17;100.00
52625;BME280;38519;52.540;13.410;2023-11-21T03:35:34;45112.38;;;-146.17;100.00
52625;BME280;38519;52.540;13.410;2023-11-21T03:38:00;45173.66;;;-146.17;100.00
52625;BME280;38519;52.540;13.410;2023-11-21T03:40:25;45161.78;;;-146.17;100.00
52625;BME280;38519;52.540;13.410;2023-11-21T03:42:50;45161.78;;;-146.17;100.00
52625;BME280;38519;52.540;13.410;2023-11-21T03:45:16;45151.91;;;-146.17;100.00
52625;BME280;38519;52.540;13.410;2023-11-21T03:47:41;45165.75;;;-146.17;100.00
52625;BME280;38519;52.540;13.410;2023-11-21T03:50:07;45138.06;;;-146.17;100.00
52625;BME280;38519;52.540;13.410;2023-11-21T03:52:34;45183.53;;;-146.17;100.00
52625;BME280;38519;52.540;13.410;2023-11-21T03:55:00;45181.56;;;-146.17;100.00
52625;BME280;38519;52.540;13.410;2023-11-21T03:57:25;45187.47;;;-146.17;100.00
52625;BME280;38519;52.540;13.410;2023-11-21T03:59:50;45203.28;;;-146.17;100.00
52625;BME280;38519;52.540;13.410;2023-11-21T04:02:16;45171.66;;;-146.17;100.00
52625;BME280;38519;52.540;13.410;2023-11-21T04:04:43;45183.53;;;-146.17;100.00
52625;BME280;38519;52.540;13.410;2023-11-21T04:07:09;45203.28;;;-146.17;100.00
52625;BME280;38519;52.540;13.410;2023-11-21T04:09:34;45171.66;;;-146.17;100.00
52625;BME280;38519;52.540;13.410;2023-11-21T04:12:01;45240.84;;;-146.17;100.00
52625;BME280;38519;52.540;13.410;2023-11-21T04:14:26;45213.16;;;-146.17;100.00
52625;BME280;38519;52.540;13.410;2023-11-21T04:16:52;45213.16;;;-146.17;100.00
52625;BME280;38519;52.540;13.410;2023-11-21T04:19:19;45228.97;;;-146.17;100.00
52625;BME280;38519;52.540;13.410;2023-11-21T04:21:45;45246.75;;;-146.17;100.00
52625;BME280;38519;52.540;13.410;2023-11-21T04:24:11;45221.06;;;-146.17;100.00
52625;BME280;38519;52.540;13.410;2023-11-21T04:26:36;45248.75;;;-146.17;100.00
52625;BME280;38519;52.540;13.410;2023-11-21T04:29:01;45266.53;;;-146.17;100.00
52625;BME280;38519;52.540;13.410;2023-11-21T04:31:27;45244.78;;;-146.17;100.00
52625;BME280;38519;52.540;13.410;2023-11-21T04:33:52;45234.91;;;-146.17;100.00
52625;BME280;38519;52.540;13.410;2023-11-21T04:36:17;45230.94;;;-146.17;100.00
52625;BME280;38519;52.540;13.410;2023-11-21T04:38:42;45248.75;;;-146.17;100.00
52625;BME280;38519;52.540;13.410;2023-11-21T04:41:08;45248.75;;;-146.17;100.00
52625;BME280;38519;52.540;13.410;2023-11-21T04:43:33;45250.72;;;-146.17;100.00
52625;BME280;38519;52.540;13.410;2023-11-21T04:45:58;45264.56;;;-146.17;100.00
52625;BME280;38519;52.540;13.410;2023-11-21T04:48:24;45246.75;;;-146.17;100.00
52625;BME280;38519;52.540;13.410;2023-11-21T04:50:49;45236.88;;;-146.17;100.00
52625;BME280;38519;52.540;13.410;2023-11-21T04:53:14;45252.69;;;-146.17;100.00
52625;BME280;38519;52.540;13.410;2023-11-21T04:55:42;45256.66;;;-146.17;100.00
52625;BME280;38519;52.540;13.410;2023-11-21T04:58:08;45252.69;;;-146.17;100.00
52625;BME280;38519;52.540;13.410;2023-11-21T05:00:33;45282.34;;;-146.17;100.00
52625;BME280;38519;52.540;13.410;2023-11-21T05:02:58;45288.25;;;-146.17;100.00
52625;BME280;38519;52.540;13.410;2023-11-21T05:05:26;45280.38;;;-146.17;100.00
52625;BME280;38519;52.540;13.410;2023-11-21T05:07:51;45266.53;;;-146.17;100.00
52625;BME280;38519;52.540;13.410;2023-11-21T05:10:18;45280.38;;;-146.17;100.00
52625;BME280;38519;52.540;13.410;2023-11-21T05:12:43;45280.38;;;-146.17;100.00
52625;BME280;38519;52.540;13.410;2023-11-21T05:15:09;45258.63;;;-146.17;100.00
52625;BME280;38519;52.540;13.410;2023-11-21T05:17:37;45292.22;;;-146.17;100.00
52625;BME280;38519;52.540;13.410;2023-11-21T05:20:15;45288.25;;;-146.17;100.00
52625;BME280;38519;52.540;13.410;2023-11-21T05:22:45;45256.66;;;-146.17;100.00
52625;BME280;38519;52.540;13.410;2023-11-21T05:25:10;45260.59;;;-146.17;100.00
52625;BME280;38519;52.540;13.410;2023-11-21T05:27:36;45274.44;;;-146.17;100.00
52625;BME280;38519;52.540;13.410;2023-11-21T05:30:02;45262.56;;;-146.17;100.00
52625;BME280;38519;52.540;13.410;2023-11-21T05:32:30;45276.41;;;-146.17;100.00
52625;BME280;38519;52.540;13.410;2023-11-21T05:34:55;45284.31;;;-146.17;100.00
52625;BME280;38519;52.540;13.410;2023-11-21T05:37:20;45284.31;;;-146.17;100.00
52625;BME280;38519;52.540;13.410;2023-11-21T05:39:45;45323.84;;;-146.17;100.00
52625;BME280;38519;52.540;13.410;2023-11-21T05:42:11;45296.16;;;-146.17;100.00
52625;BME280;38519;52.540;13.410;2023-11-21T05:44:37;45335.69;;;-146.17;100.00
52625;BME280;38519;52.540;13.410;2023-11-21T05:47:06;45313.97;;;-146.17;100.00
52625;BME280;38519;52.540;13.410;2023-11-21T05:49:33;45315.94;;;-146.17;100.00
52625;BME280;38519;52.540;13.410;2023-11-21T05:51:58;45321.88;;;-146.17;100.00
52625;BME280;38519;52.540;13.410;2023-11-21T05:54:23;45315.94;;;-146.17;100.00
52625;BME280;38519;52.540;13.410;2023-11-21T05:56:49;45317.91;;;-146.17;100.00
52625;BME280;38519;52.540;13.410;2023-11-21T05:59:14;45339.66;;;-146.17;100.00
52625;BME280;38519;52.540;13.410;2023-11-21T06:01:39;45311.97;;;-146.17;100.00
52625;BME280;38519;52.540;13.410;2023-11-21T06:04:06;45327.78;;;-146.17;100.00
52625;BME280;38519;52.540;13.410;2023-11-21T06:06:33;45343.59;;;-146.17;100.00
52625;BME280;38519;52.540;13.410;2023-11-21T06:08:58;45339.66;;;-146.17;100.00
52625;BME280;38519;52.540;13.410;2023-11-21T06:11:23;45327.78;;;-146.17;100.00
52625;BME280;38519;52.540;13.410;2023-11-21T06:13:49;45343.59;;;-146.17;100.00
52625;BME280;38519;52.540;13.410;2023-11-21T06:16:15;45371.28;;;-146.17;100.00
52625;BME280;38519;52.540;13.410;2023-11-21T06:18:42;45367.31;;;-146.17;100.00
52625;BME280;38519;52.540;13.410;2023-11-21T06:21:11;45335.69;;;-146.17;100.00
52625;BME280;38519;52.540;13.410;2023-11-21T06:23:36;45361.38;;;-146.17;100.00
52625;BME280;38519;52.540;13.410;2023-11-21T06:26:01;45375.22;;;-146.17;100.00
52625;BME280;38519;52.540;13.410;2023-11-21T06:28:27;45355.47;;;-146.17;100.00
52625;BME280;38519;52.540;13.410;2023-11-21T06:30:52;45381.16;;;-146.17;100.00
52625;BME280;38519;52.540;13.410;2023-11-21T06:33:18;45363.38;;;-146.17;100.00
52625;BME280;38519;52.540;13.410;2023-11-21T06:35:43;45359.41;;;-146.17;100.00
52625;BME280;38519;52.540;13.410;2023-11-21T06:38:09;45355.47;;;-146.17;100.00
52625;BME280;38519;52.540;13.410;2023-11-21T06:40:34;45361.38;;;-146.17;100.00
52625;BME280;38519;52.540;13.410;2023-11-21T06:43:00;45349.53;;;-146.17;100.00
52625;BME280;38519;52.540;13.410;2023-11-21T06:45:25;45355.47;;;-146.17;100.00
52625;BME280;38519;52.540;13.410;2023-11-21T06:47:51;45396.97;;;-146.17;100.00
52625;BME280;38519;52.540;13.410;2023-11-21T06:50:16;45371.28;;;-146.17;100.00
52625;BME280;38519;52.540;13.410;2023-11-21T06:52:43;45381.16;;;-146.17;100.00
52625;BME280;38519;52.540;13.410;2023-11-21T06:55:08;45355.47;;;-146.17;100.00
52625;BME280;38519;52.540;13.410;2023-11-21T06:57:33;45371.28;;;-146.17;100.00
52625;BME280;38519;52.540;13.410;2023-11-21T06:59:59;45391.03;;;-146.17;100.00
52625;BME280;38519;52.540;13.410;2023-11-21T07:02:24;45391.03;;;-146.17;100.00
52625;BME280;38519;52.540;13.410;2023-11-21T07:04:49;45381.16;;;-146.17;100.00
52625;BME280;38519;52.540;13.410;2023-11-21T07:07:15;45371.28;;;-146.17;100.00
52625;BME280;38519;52.540;13.410;2023-11-21T07:09:40;45377.19;;;-146.17;100.00
52625;BME280;38519;52.540;13.410;2023-11-21T07:12:06;45418.69;;;-146.17;100.00
52625;BME280;38519;52.540;13.410;2023-11-21T07:14:33;45371.28;;;-146.17;100.00
52625;BME280;38519;52.540;13.410;2023-11-21T07:16:58;45396.97;;;-146.17;100.00
52625;BME280;38519;52.540;13.410;2023-11-21T07:19:23;45355.47;;;-146.17;100.00
52625;BME280;38519;52.540;13.410;2023-11-21T07:21:49;45396.97;;;-146.17;100.00
52625;BME280;38519;52.540;13.410;2023-11-21T07:24:16;45402.88;;;-146.17;100.00
52625;BME280;38519;52.540;13.410;2023-11-21T07:26:41;45387.09;;;-146.17;100.00
52625;BME280;38519;52.540;13.410;2023-11-21T07:29:06;45383.13;;;-146.17;100.00
52625;BME280;38519;52.540;13.410;2023-11-21T07:31:31;45402.88;;;-146.17;100.00
52625;BME280;38519;52.540;13.410;2023-11-21T07:33:59;45394.97;;;-146.17;100.00
52625;BME280;38519;52.540;13.410;2023-11-21T07:36:24;45404.88;;;-146.17;100.00
52625;BME280;38519;52.540;13.410;2023-11-21T07:38:50;45404.88;;;-146.17;100.00
52625;BME280;38519;52.540;13.410;2023-11-21T07:41:15;45394.97;;;-146.17;100.00
52625;BME280;38519;52.540;13.410;2023-11-21T07:43:42;45394.97;;;-146.17;100.00
52625;BME280;38519;52.540;13.410;2023-11-21T07:46:07;45387.09;;;-146.17;100.00
52625;BME280;38519;52.540;13.410;2023-11-21T07:48:36;45383.13;;;-146.17;100.00
52625;BME280;38519;52.540;13.410;2023-11-21T07:51:02;45363.38;;;-146.17;100.00
52625;BME280;38519;52.540;13.410;2023-11-21T07:53:31;45398.94;;;-146.17;100.00
52625;BME280;38519;52.540;13.410;2023-11-21T07:55:58;45383.13;;;-146.17;100.00
52625;BME280;38519;52.540;13.410;2023-11-21T07:58:23;45406.84;;;-146.17;100.00
52625;BME280;38519;52.540;13.410;2023-11-21T08:00:49;45394.97;;;-146.17;100.00
52625;BME280;38519;52.540;13.410;2023-11-21T08:03:14;45422.66;;;-146.17;100.00
52625;BME280;38519;52.540;13.410;2023-11-21T08:05:39;45404.88;;;-146.17;100.00
52625;BME280;38519;52.540;13.410;2023-11-21T08:08:05;45418.69;;;-146.17;100.00
52625;BME280;38519;52.540;13.410;2023-11-21T08:10:30;45404.88;;;-146.17;100.00
52625;BME280;38519;52.540;13.410;2023-11-21T08:12:55;45412.78;;;-146.17;100.00
52625;BME280;38519;52.540;13.410;2023-11-21T08:15:21;45418.69;;;-146.17;100.00
52625;BME280;38519;52.540;13.410;2023-11-21T08:17:46;45408.81;;;-146.17;100.00
52625;BME280;38519;52.540;13.410;2023-11-21T08:20:11;45402.88;;;-146.17;100.00
52625;BME280;38519;52.540;13.410;2023-11-21T08:22:37;45402.88;;;-146.17;100.00
52625;BME280;38519;52.540;13.410;2023-11-21T08:25:02;45404.88;;;-146.17;100.00
52625;BME280;38519;52.540;13.410;2023-11-21T08:27:29;45432.53;;;-146.17;100.00
52625;BME280;38519;52.540;13.410;2023-11-21T08:29:55;45418.69;;;-146.17;100.00
52625;BME280;38519;52.540;13.410;2023-11-21T08:32:21;45438.47;;;-146.17;100.00
52625;BME280;38519;52.540;13.410;2023-11-21T08:34:46;45418.69;;;-146.17;100.00
52625;BME280;38519;52.540;13.410;2023-11-21T08:37:15;45383.13;;;-146.17;100.00
52625;BME280;38519;52.540;13.410;2023-11-21T08:39:40;45383.13;;;-146.17;100.00
52625;BME280;38519;52.540;13.410;2023-11-21T08:42:07;45315.94;;;-146.17;100.00
52625;BME280;38519;52.540;13.410;2023-11-21T08:44:33;45308.03;;;-146.17;100.00
52625;BME280;38519;52.540;13.410;2023-11-21T08:46:58;45296.16;;;-146.17;100.00
52625;BME280;38519;52.540;13.410;2023-11-21T08:49:23;45331.75;;;-146.17;100.00
52625;BME280;38519;52.540;13.410;2023-11-21T08:51:51;45331.75;;;-146.17;100.00
52625;BME280;38519;52.540;13.410;2023-11-21T08:54:16;45274.44;;;-146.17;100.00
52625;BME280;38519;52.540;13.410;2023-11-21T08:56:42;45246.75;;;-146.17;100.00
52625;BME280;38519;52.540;13.410;2023-11-21T08:59:08;45276.41;;;-146.17;100.00
52625;BME280;38519;52.540;13.410;2023-11-21T09:01:33;45290.25;;;-146.17;100.00
52625;BME280;38519;52.540;13.410;2023-11-21T09:03:58;45286.28;;;-146.17;100.00
52625;BME280;38519;52.540;13.410;2023-11-21T09:06:24;45313.97;;;-146.17;100.00
52625;BME280;38519;52.540;13.410;2023-11-21T09:08:49;45313.97;;;-146.17;100.00
52625;BME280;38519;52.540;13.410;2023-11-21T09:11:15;45335.69;;;-146.17;100.00
52625;BME280;38519;52.540;13.410;2023-11-21T09:13:40;45286.28;;;-146.17;100.00
52625;BME280;38519;52.540;13.410;2023-11-21T09:16:05;45252.69;;;-146.17;100.00
52625;BME280;38519;52.540;13.410;2023-11-21T09:18:31;45304.06;;;-146.17;100.00
52625;BME280;38519;52.540;13.410;2023-11-21T09:20:56;45308.03;;;-146.17;100.00
52625;BME280;38519;52.540;13.410;2023-11-21T09:23:21;45317.91;;;-146.17;100.00
52625;BME280;38519;52.540;13.410;2023-11-21T09:25:47;45347.56;;;-146.17;100.00
52625;BME280;38519;52.540;13.410;2023-11-21T09:28:14;45363.38;;;-146.17;100.00
52625;BME280;38519;52.540;13.410;2023-11-21T09:30:40;45331.75;;;-146.17;100.00
52625;BME280;38519;52.540;13.410;2023-11-21T09:33:05;45304.06;;;-146.17;100.00
52625;BME280;38519;52.540;13.410;2023-11-21T09:35:36;45311.97;;;-146.17;100.00
52625;BME280;38519;52.540;13.410;2023-11-21T09:38:03;45260.59;;;-146.17;100.00
52625;BME280;38519;52.540;13.410;2023-11-21T09:40:30;45246.75;;;-146.17;100.00
52625;BME280;38519;52.540;13.410;2023-11-21T09:42:56;45252.69;;;-146.17;100.00
52625;BME280;38519;52.540;13.410;2023-11-21T09:45:29;45264.56;;;-146.17;100.00
52625;BME280;38519;52.540;13.410;2023-11-21T09:48:00;45280.38;;;-146.17;100.00
52625;BME280;38519;52.540;13.410;2023-11-21T09:50:25;45288.25;;;-146.17;100.00
52625;BME280;38519;52.540;13.410;2023-11-21T09:55:18;45286.28;;;-146.17;100.00
52625;BME280;38519;52.540;13.410;2023-11-21T09:57:47;45308.03;;;-146.17;100.00
52625;BME280;38519;52.540;13.410;2023-11-21T10:00:13;45276.41;;;-146.17;100.00
52625;BME280;38519;52.540;13.410;2023-11-21T10:02:42;45313.97;;;-146.17;100.00
52625;BME280;38519;52.540;13.410;2023-11-21T10:05:08;45288.25;;;-146.17;100.00
52625;BME280;38519;52.540;13.410;2023-11-21T10:07:36;45288.25;;;-146.17;100.00
52625;BME280;38519;52.540;13.410;2023-11-21T10:10:04;45304.06;;;-146.17;100.00
52625;BME280;38519;52.540;13.410;2023-11-21T10:12:29;45331.75;;;-146.17;100.00
52625;BME280;38519;52.540;13.410;2023-11-21T10:14:56;45296.16;;;-146.17;100.00
52625;BME280;38519;52.540;13.410;2023-11-21T10:17:23;45329.78;;;-146.17;100.00
52625;BME280;38519;52.540;13.410;2023-11-21T10:19:51;45327.78;;;-146.17;100.00
52625;BME280;38519;52.540;13.410;2023-11-21T10:22:18;45300.13;;;-146.17;100.00
52625;BME280;38519;52.540;13.410;2023-11-21T10:24:45;45317.91;;;-146.17;100.00
52625;BME280;38519;52.540;13.410;2023-11-21T10:27:10;45300.13;;;-146.17;100.00
52625;BME280;38519;52.540;13.410;2023-11-21T10:29:35;45290.25;;;-146.17;100.00
52625;BME280;38519;52.540;13.410;2023-11-21T10:32:03;45262.56;;;-146.17;100.00
52625;BME280;38519;52.540;13.410;2023-11-21T10:34:30;45262.56;;;-146.17;100.00
52625;BME280;38519;52.540;13.410;2023-11-21T10:36:56;45272.47;;;-146.17;100.00
52625;BME280;38519;52.540;13.410;2023-11-21T10:39:23;45284.31;;;-146.17;100.00
52625;BME280;38519;52.540;13.410;2023-11-21T10:41:49;45278.38;;;-146.17;100.00
52625;BME280;38519;52.540;13.410;2023-11-21T10:44:15;45310.00;;;-146.17;100.00
52625;BME280;38519;52.540;13.410;2023-11-21T10:46:52;45306.06;;;-146.17;100.00
52625;BME280;38519;52.540;13.410;2023-11-21T10:49:20;45292.22;;;-146.17;100.00
52625;BME280;38519;52.540;13.410;2023-11-21T10:51:46;45264.56;;;-146.17;100.00
52625;BME280;38519;52.540;13.410;2023-11-21T10:54:16;45288.25;;;-146.17;100.00
52625;BME280;38519;52.540;13.410;2023-11-21T10:56:42;45282.34;;;-146.17;100.00
52625;BME280;38519;52.540;13.410;2023-11-21T10:59:12;45308.03;;;-146.17;100.00
52625;BME280;38519;52.540;13.410;2023-11-21T11:01:40;45300.13;;;-146.17;100.00
52625;BME280;38519;52.540;13.410;2023-11-21T11:04:08;45282.34;;;-146.17;100.00
52625;BME280;38519;52.540;13.410;2023-11-21T11:06:39;45304.06;;;-146.17;100.00
52625;BME280;38519;52.540;13.410;2023-11-21T11:09:05;45268.50;;;-146.17;100.00
52625;BME280;38519;52.540;13.410;2023-11-21T11:11:33;45294.19;;;-146.17;100.00
52625;BME280;38519;52.540;13.410;2023-11-21T11:13:59;45292.22;;;-146.17;100.00
52625;BME280;38519;52.540;13.410;2023-11-21T11:16:26;45317.91;;;-146.17;100.00
52625;BME280;38519;52.540;13.410;2023-11-21T11:18:53;45308.03;;;-146.17;100.00
52625;BME280;38519;52.540;13.410;2023-11-21T11:21:32;45325.81;;;-146.17;100.00
52625;BME280;38519;52.540;13.410;2023-11-21T11:26:37;45311.97;;;-146.17;100.00
52625;BME280;38519;52.540;13.410;2023-11-21T11:31:55;45276.41;;;-146.17;100.00
52625;BME280;38519;52.540;13.410;2023-11-21T11:34:26;45280.38;;;-146.17;100.00
52625;BME280;38519;52.540;13.410;2023-11-21T11:36:56;45310.00;;;-146.17;100.00
52625;BME280;38519;52.540;13.410;2023-11-21T11:41:53;45260.59;;;-146.17;100.00
52625;BME280;38519;52.540;13.410;2023-11-21T11:47:04;45300.13;;;-146.17;100.00
52625;BME280;38519;52.540;13.410;2023-11-21T11:49:38;45290.25;;;-146.17;100.00
52625;BME280;38519;52.540;13.410;2023-11-21T11:54:48;45274.44;;;-146.17;100.00
52625;BME280;38519;52.540;13.410;2023-11-21T11:57:15;45282.34;;;-146.17;100.00
52625;BME280;38519;52.540;13.410;2023-11-21T12:02:26;45321.88;;;-146.17;100.00
52625;BME280;38519;52.540;13.410;2023-11-21T12:04:55;45313.97;;;-146.17;100.00
52625;BME280;38519;52.540;13.410;2023-11-21T12:07:21;45313.97;;;-146.17;100.00
52625;BME280;38519;52.540;13.410;2023-11-21T12:09:47;45349.53;;;-146.17;100.00
52625;BME280;38519;52.540;13.410;2023-11-21T12:12:13;45331.75;;;-146.17;100.00
52625;BME280;38519;52.540;13.410;2023-11-21T12:14:39;45353.47;;;-146.17;100.00
52625;BME280;38519;52.540;13.410;2023-11-21T12:17:04;45335.69;;;-146.17;100.00
52625;BME280;38519;52.540;13.410;2023-11-21T12:19:29;45310.00;;;-146.17;100.00
52625;BME280;38519;52.540;13.410;2023-11-21T12:21:55;45304.06;;;-146.17;100.00
52625;BME280;38519;52.540;13.410;2023-11-21T12:24:20;45311.97;;;-146.17;100.00
52625;BME280;38519;52.540;13.410;2023-11-21T12:26:46;45288.25;;;-146.17;100.00
52625;BME280;38519;52.540;13.410;2023-11-21T12:29:11;45282.34;;;-146.17;100.00
52625;BME280;38519;52.540;13.410;2023-11-21T12:31:36;45292.22;;;-146.17;100.00
52625;BME280;38519;52.540;13.410;2023-11-21T12:34:01;45268.50;;;-146.17;100.00